Boston, MA (02118)

12:49 AM EDT on September 05, 2015 (GMT -0400)
Boston - South End | | Change Station
CLOSE
Current Station
Personal Weather Station
Location: Boston, MA
Elevation: 86 ft
Nearby Weather Stations

Elev 86 ft 42.34 °N, 71.07 °W | Updated 3 minutes ago

Clear
Clear
63.9 °F
Feels Like 63.9 °F
N
0.0
Wind Variable Wind from SSE
Gusts 4.0 mph

Today
High -- | Low -- °F
--% Chance of Precip.
Yesterday
High -- | Low -- °F
Precip. -- in
6:13 AM 7:11 PM
Waning Gibbous, 52% visible
Pressure 30.27 in
Visibility 10.0 miles
Clouds Clear
Dew Point 57 °F
Humidity 79%
Rainfall 0.00 in
Snow Depth Not available.
UV 0 out of 12
Pollen 8.50 out of 12
Air Quality Not available.
Flu Activity Not available.
METAR KBOS 050354Z 06003KT 10SM CLR 17/13 A3026 RMK AO2 SLP248 T01670133
Pressure 30.27 in
Visibility 10.0 miles
Clouds Clear
Dew Point 57 °F
Humidity 79%
Rainfall 0.00 in
Snow Depth Not available.
UV 0 out of 12
Pollen 8.50 out of 12
Air Quality Not available.
Flu Activity Not available.
METAR KBOS 050354Z 06003KT 10SM CLR 17/13 A3026 RMK AO2 SLP248 T01670133

10-Day Weather Forecast

×

Almanac

Astronomy

Sep. 05, 2015 Rise Set
Actual Time
Civil Twilight
Nautical Twilight
Astronomical Twilight
Moon
Length of Visible Light
Length of Day
Tomorrow will be .
, % of the Moon is Illuminated

Today's Extremes

State Highs State Lows

Community

WunderPhotos

Upload Photos

1,852,426 photos uploaded!

WunderBlogs® & News

Nearby

Air Quality

  Air Quality AQ Index Pollutant
Not available.

Snow Depth

Station Depth Elevation

Earthquake Activity

City Distance Mag. Time & Date
Minimum magnitude displayed is 2.5.

Coastal Water Temperatures

Place Temperature

Stations

Nearby Weather Stations

Station Location Temp. Windchill Dew Point Humidity Wind Precip. Elev Updated Type